Time;durP1;ratioP1;P1;durP2;ratioP2;P2;SDS_P1;SDS_P2;PMS_P1;PMS_P2;Temp;Humidity;BMP_temperature;BMP_pressure;BME280_temperature;BME280_humidity;BME280_pressure;Samples;Min_cycle;Max_cycle;Signal;HPM_P1;HPM_P2
2023/01/01 00:00:08;;;;;;;;;18.75;15.00;;;;;13.36;79.81;99971.09;5071025;28;45411;-81
2023/01/01 00:02:33;;;;;;;;;28.75;26.25;;;;;13.33;79.61;99960.59;5073252;27;45663;-81
2023/01/01 00:05:00;;;;;;;;;26.33;25.00;;;;;13.23;79.31;99974.22;5069827;27;45563;-80
2023/01/01 00:07:25;;;;;;;;;23.50;21.00;;;;;13.17;79.84;99952.38;5073301;27;45430;-81
2023/01/01 00:12:35;;;;;;;;;23.25;19.25;;;;;12.98;80.81;99923.03;5066475;28;45505;-81
2023/01/01 00:15:00;;;;;;;;;31.00;26.25;;;;;12.91;80.29;99932.97;5072453;28;46573;-81
2023/01/01 00:17:28;;;;;;;;;34.00;30.33;;;;;12.86;80.35;99944.66;5059928;27;45411;-80
2023/01/01 00:19:54;;;;;;;;;34.33;28.67;;;;;12.76;80.46;99945.91;5060746;28;45696;-80
2023/01/01 00:22:19;;;;;;;;;34.33;28.33;;;;;12.67;80.56;99962.97;5074153;27;45598;-80
2023/01/01 00:24:45;;;;;;;;;29.67;26.33;;;;;12.62;81.21;99971.97;5062189;27;45966;-80
2023/01/01 00:27:10;;;;;;;;;28.33;25.33;;;;;12.51;81.15;99956.50;5073845;28;45333;-80
2023/01/01 00:29:39;;;;;;;;;22.75;22.50;;;;;12.47;82.20;99955.72;5074103;27;45377;-80
2023/01/01 00:32:04;;;;;;;;;15.00;15.00;;;;;12.46;82.08;99953.13;5089423;27;45479;-80
2023/01/01 00:34:30;;;;;;;;;20.25;19.75;;;;;12.46;82.91;99951.34;5068995;27;45316;-80
2023/01/01 00:36:56;;;;;;;;;33.00;31.67;;;;;12.47;81.82;99962.81;5064788;28;45481;-79
2023/01/01 00:39:21;;;;;;;;;17.00;14.75;;;;;12.42;83.33;99949.72;5070166;27;45630;-80
2023/01/01 00:41:47;;;;;;;;;17.50;15.75;;;;;12.41;83.00;99961.22;5064097;28;45445;-80
2023/01/01 00:44:12;;;;;;;;;16.00;15.75;;;;;12.41;84.26;99958.56;5073341;27;46431;-80
2023/01/01 00:46:38;;;;;;;;;13.25;12.50;;;;;12.43;84.87;99961.16;5071655;27;45375;-80
2023/01/01 00:49:03;;;;;;;;;13.50;12.75;;;;;12.43;84.64;99961.16;5071479;27;45550;-80
2023/01/01 00:51:29;;;;;;;;;16.75;13.25;;;;;12.43;83.78;99975.25;5073834;27;45412;-80
2023/01/01 00:53:54;;;;;;;;;9.25;6.75;;;;;12.44;85.01;99955.81;5069835;27;45416;-80
2023/01/01 00:56:20;;;;;;;;;12.50;9.75;;;;;12.46;84.33;99942.56;5063259;28;45453;-80
2023/01/01 00:58:45;;;;;;;;;15.00;13.00;;;;;12.45;84.00;99946.13;5075315;27;45380;-80
2023/01/01 01:01:11;;;;;;;;;14.00;12.00;;;;;12.45;83.93;99961.97;5070191;27;45367;-80
2023/01/01 01:03:39;;;;;;;;;15.00;12.00;;;;;12.49;83.68;99951.25;5067458;28;46379;-80
2023/01/01 01:06:04;;;;;;;;;13.00;11.80;;;;;12.54;83.39;99962.56;5066532;28;45433;-80
2023/01/01 01:08:33;;;;;;;;;13.75;11.00;;;;;12.59;83.40;99968.53;5074697;28;45635;-79
2023/01/01 01:11:11;;;;;;;;;11.75;11.75;;;;;12.67;83.00;99954.19;5067067;28;45559;-80
2023/01/01 01:13:37;;;;;;;;;14.25;10.75;;;;;12.72;82.34;99971.63;5074200;27;45508;-80
2023/01/01 01:16:13;;;;;;;;;8.80;7.00;;;;;12.78;82.33;99958.16;5067755;27;45407;-80
2023/01/01 01:18:39;;;;;;;;;11.25;9.00;;;;;12.86;81.65;99952.59;5068946;28;45391;-80
2023/01/01 01:21:04;;;;;;;;;8.75;7.75;;;;;12.90;81.50;99970.13;5068557;28;45460;-80
2023/01/01 01:23:30;;;;;;;;;12.50;10.25;;;;;12.93;81.01;99954.97;5076024;28;45506;-80
2023/01/01 01:26:17;;;;;;;;;13.00;10.00;;;;;13.01;80.73;99962.63;5073896;27;45385;-80
2023/01/01 01:28:44;;;;;;;;;6.50;6.00;;;;;13.08;80.51;99984.44;5072165;27;45417;-80
2023/01/01 01:31:10;;;;;;;;;11.50;10.50;;;;;13.09;80.34;99968.50;5071405;27;45494;-80
2023/01/01 01:33:36;;;;;;;;;14.50;14.50;;;;;13.12;80.24;99981.63;5066644;28;45535;-80
2023/01/01 01:36:03;;;;;;;;;24.25;19.50;;;;;13.07;80.39;99983.56;5075141;28;45305;-80
2023/01/01 01:38:28;;;;;;;;;27.50;21.50;;;;;12.98;79.87;99981.28;5075577;28;45424;-80
2023/01/01 01:40:54;;;;;;;;;27.67;24.00;;;;;12.84;80.57;99987.06;5073864;28;45526;-80
2023/01/01 01:43:30;;;;;;;;;26.75;24.75;;;;;12.72;80.93;99995.44;5071737;27;46169;-81
2023/01/01 01:46:00;;;;;;;;;27.67;25.33;;;;;12.60;81.03;99998.50;5075128;28;45487;-80
2023/01/01 01:48:26;;;;;;;;;28.50;26.75;;;;;12.51;81.17;100007.63;5072580;27;45481;-80
2023/01/01 01:50:54;;;;;;;;;26.33;22.67;;;;;12.45;81.76;100009.59;5068697;27;45456;-80
2023/01/01 01:53:28;;;;;;;;;26.75;23.75;;;;;12.38;82.10;100021.31;5073539;28;47646;-79
2023/01/01 01:55:58;;;;;;;;;28.67;24.33;;;;;12.33;82.23;100002.06;5064106;28;45278;-79
2023/01/01 01:58:26;;;;;;;;;29.75;25.50;;;;;12.29;82.36;100011.00;5073757;27;45463;-80
2023/01/01 02:00:52;;;;;;;;;24.50;23.50;;;;;12.22;82.98;100005.94;5067573;28;45411;-79
2023/01/01 02:03:23;;;;;;;;;26.50;25.00;;;;;12.23;82.93;100020.88;5072012;28;46423;-79
2023/01/01 02:05:50;;;;;;;;;28.67;24.67;;;;;12.17;83.18;100023.72;5070190;28;45392;-80
2023/01/01 02:08:16;;;;;;;;;28.00;26.33;;;;;12.11;83.07;100021.25;5075410;27;45335;-80
2023/01/01 02:10:42;;;;;;;;;36.00;29.33;;;;;12.08;83.54;100045.16;5074856;27;45398;-80
2023/01/01 02:13:07;;;;;;;;;40.00;33.00;;;;;12.02;83.82;100015.44;5073775;27;45620;-80
2023/01/01 02:15:58;;;;;;;;;29.50;26.00;;;;;11.97;83.65;100036.69;5070630;28;45884;-80
2023/01/01 02:18:35;;;;;;;;;32.00;29.33;;;;;11.92;84.19;100033.31;5074621;28;45414;-80
2023/01/01 02:21:06;;;;;;;;;26.00;24.33;;;;;11.85;84.06;100030.03;5075014;28;45244;-80
2023/01/01 02:23:50;;;;;;;;;32.00;29.67;;;;;11.83;84.17;100034.50;5071411;27;46179;-80
2023/01/01 02:26:53;;;;;;;;;31.00;24.33;;;;;11.80;84.46;100039.00;5055993;28;45479;-80
2023/01/01 02:29:29;;;;;;;;;30.67;27.33;;;;;11.77;84.65;100042.59;5065969;28;45511;-81
2023/01/01 02:32:13;;;;;;;;;26.75;21.75;;;;;11.76;84.64;100058.47;5065507;28;45400;-80
2023/01/01 02:38:20;;;;;;;;;25.50;24.50;;;;;11.71;84.68;100055.09;5040994;28;45439;-80
2023/01/01 02:40:50;;;;;;;;;27.33;24.67;;;;;11.63;84.77;100057.09;5072591;28;45449;-81
2023/01/01 02:43:16;;;;;;;;;30.00;26.33;;;;;11.60;85.16;100057.16;5072053;28;45446;-80
2023/01/01 02:45:41;;;;;;;;;26.00;24.00;;;;;11.58;85.03;100064.28;5069982;28;45623;-80
2023/01/01 02:48:42;;;;;;;;;25.67;24.33;;;;;11.57;84.68;100070.47;5074504;28;45434;-80
2023/01/01 02:51:15;;;;;;;;;29.33;23.33;;;;;11.50;85.44;100073.28;5074802;27;45457;-80
2023/01/01 02:54:00;;;;;;;;;29.00;25.67;;;;;11.46;85.35;100076.94;5067266;28;45518;-80
2023/01/01 02:56:58;;;;;;;;;29.00;25.00;;;;;11.40;85.80;100090.28;5074423;27;45433;-80
2023/01/01 03:02:51;;;;;;;;;33.00;26.67;;;;;11.32;85.94;100083.50;5074820;28;45383;-81
2023/01/01 03:06:21;;;;;;;;;24.33;22.67;;;;;11.28;85.91;100088.00;5071668;28;45583;-79
2023/01/01 03:08:33;;;;;;;;;33.00;28.67;;;;;11.21;86.25;100072.38;5070800;28;45321;-79
2023/01/01 03:11:09;;;;;;;;;20.67;20.00;;;;;11.15;86.39;100102.44;5070315;28;45629;-79
2023/01/01 03:14:05;;;;;;;;;27.67;21.33;;;;;11.11;86.66;100064.72;5075142;27;45348;-79
2023/01/01 03:16:48;;;;;;;;;26.00;23.00;;;;;11.05;86.98;100093.06;5069450;27;45621;-80
2023/01/01 03:19:23;;;;;;;;;25.33;23.00;;;;;10.99;86.87;100087.91;5068980;28;48060;-80
2023/01/01 03:21:56;;;;;;;;;26.67;26.33;;;;;10.96;87.02;100066.88;5063067;28;45388;-79
2023/01/01 03:24:29;;;;;;;;;27.33;25.33;;;;;10.93;87.46;100078.38;5066612;27;45414;-79
2023/01/01 03:27:00;;;;;;;;;30.67;27.33;;;;;10.92;87.63;100103.03;5073619;27;46101;-81
2023/01/01 03:29:30;;;;;;;;;28.67;24.00;;;;;10.91;87.51;100089.88;5072130;28;47109;-81
2023/01/01 03:31:59;;;;;;;;;21.33;21.33;;;;;10.90;87.65;100070.53;5074658;27;45384;-81
2023/01/01 03:34:33;;;;;;;;;31.67;26.67;;;;;10.86;87.85;100111.13;5072584;27;45388;-81
2023/01/01 03:37:06;;;;;;;;;19.00;18.00;;;;;10.82;88.13;100094.50;5074521;27;45385;-81
2023/01/01 03:39:45;;;;;;;;;26.00;20.00;;;;;10.79;87.99;100098.97;5074644;28;45493;-81
2023/01/01 03:42:30;;;;;;;;;27.00;24.67;;;;;10.80;87.55;100091.03;5081746;27;45425;-81
2023/01/01 03:45:08;;;;;;;;;21.33;21.00;;;;;10.77;88.07;100106.06;5067060;28;45376;-81
2023/01/01 03:47:34;;;;;;;;;26.67;23.33;;;;;10.74;88.15;100109.63;5073103;28;45447;-81
2023/01/01 03:50:01;;;;;;;;;22.75;22.00;;;;;10.75;88.05;100094.69;5071162;27;46166;-81
2023/01/01 03:52:45;;;;;;;;;24.00;22.33;;;;;10.76;88.07;100104.34;5071053;28;45403;-80
2023/01/01 03:55:35;;;;;;;;;25.33;24.00;;;;;10.73;88.28;100094.72;5067479;28;45467;-81
2023/01/01 03:58:30;;;;;;;;;22.00;19.50;;;;;10.73;88.34;100085.94;5070772;27;45455;-79
2023/01/01 04:01:05;;;;;;;;;26.33;23.67;;;;;10.70;88.42;100091.31;5076603;27;47620;-80
2023/01/01 04:03:33;;;;;;;;;26.67;23.67;;;;;10.65;88.88;100096.69;5071210;27;45423;-79
2023/01/01 04:06:01;;;;;;;;;27.00;23.00;;;;;10.70;88.26;100108.00;5074299;27;45508;-79
2023/01/01 04:08:27;;;;;;;;;19.67;15.67;;;;;10.65;88.44;100093.19;5072194;28;45551;-80
2023/01/01 04:10:58;;;;;;;;;32.33;24.00;;;;;10.64;88.75;100099.38;5074226;27;45418;-80
2023/01/01 04:13:24;;;;;;;;;30.67;25.33;;;;;10.63;88.74;100090.59;5073840;27;45509;-81
2023/01/01 04:15:50;;;;;;;;;24.33;21.67;;;;;10.61;88.84;100091.53;5069137;27;45423;-80
2023/01/01 04:18:15;;;;;;;;;28.67;25.67;;;;;10.62;88.77;100099.41;5070847;28;45497;-80
2023/01/01 04:20:41;;;;;;;;;24.00;22.33;;;;;10.61;89.11;100094.16;5073076;27;45442;-81
2023/01/01 04:23:06;;;;;;;;;27.67;23.00;;;;;10.64;89.04;100102.00;5071014;28;45435;-80
2023/01/01 04:25:31;;;;;;;;;27.00;25.33;;;;;10.62;88.97;100085.34;5072871;27;45400;-80
2023/01/01 04:27:57;;;;;;;;;18.33;18.00;;;;;10.63;88.87;100093.22;5068268;28;45394;-80
2023/01/01 04:30:23;;;;;;;;;23.67;21.00;;;;;10.61;88.96;100096.81;5061291;27;46192;-81
2023/01/01 04:32:48;;;;;;;;;18.67;18.00;;;;;10.62;88.84;100106.44;5077689;27;45367;-81
2023/01/01 04:35:14;;;;;;;;;28.00;22.00;;;;;10.63;89.10;100101.13;5064396;27;45343;-80
2023/01/01 04:37:42;;;;;;;;;25.33;22.00;;;;;10.60;88.19;100103.84;5072461;28;45525;-81
2023/01/01 04:40:08;;;;;;;;;22.25;18.50;;;;;10.63;88.73;100109.06;5071602;27;45453;-81
2023/01/01 04:42:34;;;;;;;;;22.00;18.67;;;;;10.59;88.76;100123.22;5075327;28;45690;-81
2023/01/01 04:45:00;;;;;;;;;23.25;21.00;;;;;10.59;89.08;100123.22;5075926;27;45439;-81
2023/01/01 04:47:28;;;;;;;;;23.67;21.33;;;;;10.57;89.12;100103.03;5072759;27;45586;-81
2023/01/01 04:49:54;;;;;;;;;20.33;17.67;;;;;10.54;89.16;100096.09;5075889;27;48148;-81
2023/01/01 04:52:20;;;;;;;;;21.25;19.00;;;;;10.58;89.29;100110.06;5079273;27;45572;-80
2023/01/01 04:54:45;;;;;;;;;27.00;21.00;;;;;10.54;89.33;100109.28;5065525;27;45438;-80
2023/01/01 04:57:11;;;;;;;;;20.00;16.00;;;;;10.57;89.48;100119.75;5068062;28;45443;-80
2023/01/01 04:59:36;;;;;;;;;4.00;3.25;;;;;10.57;89.42;100110.97;5073650;27;47528;-80
2023/01/01 05:02:02;;;;;;;;;25.00;20.50;;;;;10.61;89.80;100110.00;5075028;28;45333;-80
2023/01/01 05:04:28;;;;;;;;;14.50;13.00;;;;;10.58;90.22;100113.56;5074131;28;45425;-80
2023/01/01 05:06:53;;;;;;;;;23.75;21.25;;;;;10.60;89.91;100121.44;5075850;27;45446;-80
2023/01/01 05:09:19;;;;;;;;;21.75;20.00;;;;;10.60;89.65;100122.31;5071886;27;45448;-80
2023/01/01 05:11:44;;;;;;;;;23.25;19.50;;;;;10.56;89.48;100118.00;5072580;28;45725;-80
2023/01/01 05:14:10;;;;;;;;;22.25;18.25;;;;;10.53;89.67;100112.81;5070826;28;45436;-80
2023/01/01 05:16:38;;;;;;;;;28.33;22.67;;;;;10.57;89.57;100126.78;5080554;27;45446;-80
2023/01/01 05:19:05;;;;;;;;;22.25;20.00;;;;;10.49;89.42;100122.56;5069584;27;45331;-80
2023/01/01 05:21:33;;;;;;;;;22.00;19.50;;;;;10.53;89.37;100122.50;5070909;28;45392;-81
2023/01/01 05:24:02;;;;;;;;;25.50;19.75;;;;;10.48;89.37;100128.75;5065705;28;45425;-80
2023/01/01 05:26:30;;;;;;;;;27.00;24.00;;;;;10.46;90.08;100134.94;5070529;28;45970;-80
2023/01/01 05:28:56;;;;;;;;;24.75;20.75;;;;;10.40;89.79;100130.69;5074009;28;45524;-79
2023/01/01 05:31:26;;;;;;;;;22.00;20.50;;;;;10.42;89.81;100142.06;5073066;27;45426;-78
2023/01/01 05:33:52;;;;;;;;;24.67;22.33;;;;;10.42;89.75;100138.56;5083608;27;45394;-81
2023/01/01 05:36:26;;;;;;;;;24.33;21.67;;;;;10.42;89.88;100141.19;5070896;27;45553;-81
2023/01/01 05:38:52;;;;;;;;;21.67;20.67;;;;;10.39;90.01;100138.66;5069547;27;45563;-81
2023/01/01 05:41:19;;;;;;;;;22.00;21.33;;;;;10.36;89.90;100136.94;5069305;27;45521;-81
2023/01/01 05:43:45;;;;;;;;;21.75;19.50;;;;;10.35;89.69;100127.31;5066241;28;45463;-81
2023/01/01 05:46:17;;;;;;;;;19.00;19.00;;;;;10.34;89.93;100145.78;5065209;28;45627;-81
2023/01/01 05:48:44;;;;;;;;;24.67;24.33;;;;;10.28;89.98;100135.38;5066532;28;46287;-81
2023/01/01 05:51:12;;;;;;;;;28.33;23.67;;;;;10.24;90.03;100147.75;5070481;27;45538;-81
2023/01/01 05:53:38;;;;;;;;;25.75;21.75;;;;;10.23;90.11;100139.88;5067298;27;45275;-80
2023/01/01 05:56:05;;;;;;;;;25.67;19.33;;;;;10.16;90.40;100147.03;5071200;28;45396;-80
2023/01/01 05:58:31;;;;;;;;;31.67;24.00;;;;;10.17;90.50;100134.72;5066245;27;45494;-80
2023/01/01 06:01:08;;;;;;;;;24.75;19.75;;;;;10.10;90.58;100128.72;5077841;27;45498;-81
2023/01/01 06:03:34;;;;;;;;;17.00;17.00;;;;;10.08;91.04;100135.78;5073446;28;45418;-81
2023/01/01 06:06:08;;;;;;;;;24.67;19.00;;;;;10.04;90.99;100119.19;5066287;28;45332;-79
2023/01/01 06:08:33;;;;;;;;;20.25;17.50;;;;;10.09;91.27;100124.34;5065446;27;46170;-79
2023/01/01 06:11:01;;;;;;;;;22.00;21.00;;;;;10.08;91.39;100134.00;5063579;28;45239;-79
2023/01/01 06:13:27;;;;;;;;;14.75;14.75;;;;;10.12;92.10;100126.91;5065023;28;45534;-80
2023/01/01 06:15:56;;;;;;;;;23.25;19.75;;;;;10.14;91.73;100139.16;5064961;28;45356;-81
2023/01/01 06:18:23;;;;;;;;;27.50;23.50;;;;;10.15;91.68;100134.75;5065987;28;45493;-80
2023/01/01 06:20:49;;;;;;;;;22.75;20.75;;;;;10.19;91.29;100136.47;5067190;28;45314;-80
2023/01/01 06:23:14;;;;;;;;;23.33;22.00;;;;;10.20;90.95;100145.22;5065924;28;45331;-80
2023/01/01 06:25:40;;;;;;;;;25.00;22.00;;;;;10.18;91.28;100147.00;5066842;27;45571;-80
2023/01/01 06:28:05;;;;;;;;;24.25;18.25;;;;;10.20;90.91;100140.84;5073730;28;45520;-80
2023/01/01 06:30:33;;;;;;;;;26.33;22.33;;;;;10.18;91.39;100136.47;5060404;28;45222;-80
2023/01/01 06:33:01;;;;;;;;;25.67;23.00;;;;;10.17;91.28;100154.03;5065223;28;45557;-80
2023/01/01 06:35:27;;;;;;;;;18.67;15.33;;;;;10.18;91.12;100157.53;5058717;28;45573;-80
2023/01/01 06:37:53;;;;;;;;;22.50;14.75;;;;;10.12;90.67;100134.81;5062657;27;45558;-80
2023/01/01 06:40:18;;;;;;;;;19.00;18.00;;;;;10.08;90.85;100162.13;5074047;27;45514;-81
2023/01/01 06:42:45;;;;;;;;;23.25;21.00;;;;;10.03;91.04;100129.75;5069197;28;45363;-80
2023/01/01 06:45:12;;;;;;;;;27.25;24.00;;;;;9.98;91.28;100155.31;5070055;28;45290;-81
2023/01/01 06:47:40;;;;;;;;;19.50;17.50;;;;;9.97;91.10;100136.03;5071992;27;45460;-80
2023/01/01 06:50:06;;;;;;;;;21.00;19.50;;;;;9.99;91.78;100133.34;5061736;28;45347;-80
2023/01/01 06:52:32;;;;;;;;;19.00;18.33;;;;;10.01;91.44;100123.66;5070950;28;45463;-80
2023/01/01 06:54:57;;;;;;;;;18.67;17.67;;;;;10.00;91.76;100127.19;5064775;28;45524;-80
2023/01/01 06:57:23;;;;;;;;;24.33;24.33;;;;;10.01;91.73;100129.78;5060585;27;45384;-80
2023/01/01 06:59:49;;;;;;;;;27.00;23.33;;;;;10.00;91.53;100129.81;5066416;28;45480;-80
2023/01/01 07:02:14;;;;;;;;;22.00;20.50;;;;;9.98;91.45;100132.50;5062058;27;45357;-80
2023/01/01 07:04:40;;;;;;;;;21.25;17.75;;;;;9.97;91.03;100120.22;5062998;28;45451;-80
2023/01/01 07:07:05;;;;;;;;;25.67;21.33;;;;;9.95;91.25;100140.44;5067324;28;48109;-80
2023/01/01 07:09:31;;;;;;;;;24.00;19.00;;;;;9.93;91.47;100128.22;5062151;28;45379;-80
2023/01/01 07:11:56;;;;;;;;;21.00;20.25;;;;;9.89;91.10;100127.41;5073313;28;45398;-80
2023/01/01 07:14:22;;;;;;;;;20.75;19.00;;;;;9.88;91.34;100143.25;5071309;27;45693;-80
2023/01/01 07:16:47;;;;;;;;;23.75;21.50;;;;;9.88;91.61;100138.88;5070552;27;46267;-80
2023/01/01 07:19:12;;;;;;;;;20.25;20.25;;;;;9.90;91.55;100120.38;5064866;27;45427;-80
2023/01/01 07:21:54;;;;;;;;;21.25;18.00;;;;;9.86;91.80;100124.84;5066232;27;45570;-80
2023/01/01 07:24:20;;;;;;;;;23.00;21.00;;;;;9.87;91.68;100133.63;5067727;28;45555;-80
2023/01/01 07:26:46;;;;;;;;;24.33;23.33;;;;;9.86;91.12;100127.50;5065899;28;45567;-80
2023/01/01 07:29:12;;;;;;;;;16.50;16.50;;;;;9.83;90.71;100124.91;5073586;27;45428;-80
2023/01/01 07:31:39;;;;;;;;;20.67;20.67;;;;;9.77;91.45;100117.13;5067724;28;45283;-80
2023/01/01 07:34:06;;;;;;;;;23.00;21.33;;;;;9.77;91.70;100125.91;5063955;28;45497;-80
2023/01/01 07:36:32;;;;;;;;;25.50;20.25;;;;;9.77;91.86;100125.03;5073499;27;45669;-80
2023/01/01 07:38:58;;;;;;;;;16.75;16.00;;;;;9.78;91.67;100140.81;5072336;27;45463;-80
2023/01/01 07:41:23;;;;;;;;;25.00;22.50;;;;;9.75;92.07;100103.13;5063364;27;45408;-80
2023/01/01 07:43:49;;;;;;;;;22.50;18.25;;;;;9.83;91.99;100127.56;5081989;27;45435;-80
2023/01/01 07:46:15;;;;;;;;;23.00;19.25;;;;;9.86;91.95;100124.84;5063559;28;45431;-80
2023/01/01 07:48:41;;;;;;;;;23.00;21.00;;;;;9.89;91.92;100130.03;5066501;27;45532;-80
2023/01/01 07:51:07;;;;;;;;;20.25;18.75;;;;;9.91;91.66;100130.00;5068235;27;45444;-81
2023/01/01 07:53:32;;;;;;;;;22.75;19.00;;;;;9.97;91.42;100120.22;5065310;27;45349;-80
2023/01/01 07:55:58;;;;;;;;;22.00;20.00;;;;;9.97;91.67;100124.63;5063058;28;47618;-81
2023/01/01 07:58:24;;;;;;;;;23.75;19.00;;;;;10.00;91.30;100111.38;5062160;27;45489;-81
2023/01/01 08:00:49;;;;;;;;;18.33;17.33;;;;;10.00;90.64;100114.03;5067258;28;45482;-81
2023/01/01 08:03:15;;;;;;;;;24.67;20.67;;;;;9.96;91.15;100131.66;5064260;27;45534;-81
2023/01/01 08:05:41;;;;;;;;;24.00;21.00;;;;;9.97;91.20;100111.44;5065615;28;46365;-81
2023/01/01 08:08:07;;;;;;;;;20.50;20.00;;;;;9.99;91.01;100126.31;5065324;27;45709;-81
2023/01/01 08:10:32;;;;;;;;;17.75;15.00;;;;;10.03;91.56;100108.69;5060870;28;45365;-81
2023/01/01 08:13:07;;;;;;;;;17.50;17.50;;;;;10.13;91.42;100112.84;5069657;28;45447;-81
2023/01/01 08:15:33;;;;;;;;;22.75;19.00;;;;;10.18;91.16;100115.38;5073308;27;45481;-81
2023/01/01 08:18:00;;;;;;;;;21.50;18.00;;;;;10.26;90.48;100122.22;5072681;27;45519;-81
2023/01/01 08:20:28;;;;;;;;;20.25;18.25;;;;;10.30;90.38;100108.09;5072129;28;45418;-81
2023/01/01 08:22:53;;;;;;;;;21.00;18.00;;;;;10.32;90.23;100114.19;5071999;27;45621;-81
2023/01/01 08:25:20;;;;;;;;;15.25;15.25;;;;;10.43;89.89;100096.34;5071023;28;46687;-81
2023/01/01 08:27:45;;;;;;;;;19.75;17.75;;;;;10.56;89.90;100120.63;5071503;28;45394;-81
2023/01/01 08:30:13;;;;;;;;;15.50;14.00;;;;;10.65;89.45;100104.59;5072334;28;45516;-80
2023/01/01 08:32:38;;;;;;;;;19.50;17.00;;;;;10.78;89.45;100105.16;5072078;27;45425;-67
2023/01/01 08:35:04;;;;;;;;;18.25;15.50;;;;;10.90;88.52;100101.34;5069519;28;46535;-67
2023/01/01 08:37:30;;;;;;;;;20.50;16.00;;;;;11.00;88.03;100100.22;5072979;27;45423;-67
2023/01/01 08:39:55;;;;;;;;;18.25;17.25;;;;;11.09;87.89;100082.34;5072140;28;45380;-65
2023/01/01 08:42:21;;;;;;;;;19.50;14.00;;;;;11.19;87.51;100077.72;5071890;27;45545;-65
2023/01/01 08:44:46;;;;;;;;;17.50;14.50;;;;;11.27;87.07;100082.75;5070125;28;47965;-65
2023/01/01 08:47:23;;;;;;;;;17.50;15.75;;;;;11.32;87.21;100078.22;5071874;27;45414;-65
2023/01/01 08:49:50;;;;;;;;;14.00;13.75;;;;;11.38;87.37;100078.06;5072374;27;45511;-66
2023/01/01 08:52:16;;;;;;;;;11.50;11.50;;;;;11.42;86.77;100072.63;5070555;28;45526;-65
2023/01/01 08:54:42;;;;;;;;;19.50;16.75;;;;;11.47;85.62;100091.88;5070641;27;47718;-66
2023/01/01 08:57:08;;;;;;;;;21.75;21.75;;;;;11.55;85.54;100075.81;5071134;27;45456;-67
2023/01/01 08:59:33;;;;;;;;;14.25;14.25;;;;;11.60;85.69;100062.47;5072073;27;45309;-67
2023/01/01 09:01:59;;;;;;;;;18.50;17.25;;;;;11.65;85.65;100076.41;5071698;28;45300;-67
2023/01/01 09:04:25;;;;;;;;;20.00;18.50;;;;;11.71;85.44;100053.31;5072484;27;45606;-67
2023/01/01 09:06:51;;;;;;;;;17.00;15.50;;;;;11.76;85.24;100088.41;5072407;27;45366;-66
2023/01/01 09:09:16;;;;;;;;;16.75;16.50;;;;;11.83;84.73;100063.56;5073329;27;45498;-67
2023/01/01 09:11:53;;;;;;;;;14.75;12.50;;;;;11.91;83.26;100063.31;5071376;28;45538;-67
2023/01/01 09:14:19;;;;;;;;;15.00;11.25;;;;;12.03;83.95;100075.28;5072135;27;45704;-68
2023/01/01 09:16:45;;;;;;;;;17.00;16.25;;;;;12.11;84.09;100060.91;5072575;28;45442;-68
2023/01/01 09:19:10;;;;;;;;;14.00;13.50;;;;;12.18;84.20;100080.09;5075865;28;45482;-68
2023/01/01 09:21:36;;;;;;;;;15.25;14.25;;;;;12.20;83.67;100065.06;5076403;27;45321;-68
2023/01/01 09:24:01;;;;;;;;;17.00;13.75;;;;;12.26;83.54;100072.78;5075963;27;46151;-67
2023/01/01 09:26:27;;;;;;;;;14.75;11.25;;;;;12.31;83.10;100060.28;5075676;28;45411;-68
2023/01/01 09:28:52;;;;;;;;;16.50;15.00;;;;;12.34;83.68;100068.13;5074840;27;45431;-68
2023/01/01 09:31:18;;;;;;;;;10.00;10.00;;;;;12.35;83.33;100053.13;5076033;27;45524;-68
2023/01/01 09:33:43;;;;;;;;;15.50;13.75;;;;;12.37;83.20;100075.97;5076092;27;46628;-68
2023/01/01 09:36:14;;;;;;;;;12.50;11.75;;;;;12.42;82.58;100057.28;5075889;28;45448;-68
2023/01/01 09:38:39;;;;;;;;;10.25;9.75;;;;;12.45;83.11;100051.91;5074053;28;45590;-68
2023/01/01 09:41:24;;;;;;;;;16.25;11.50;;;;;12.51;82.74;100067.59;5075456;27;45429;-67
2023/01/01 09:44:25;;;;;;;;;16.50;11.50;;;;;12.57;82.59;100049.72;5073444;28;45504;-68
2023/01/01 09:46:59;;;;;;;;;9.00;9.00;;;;;12.64;82.15;100060.09;5073552;28;45498;-68
2023/01/01 09:49:24;;;;;;;;;10.00;9.50;;;;;12.71;82.11;100062.50;5069323;28;45410;-68
2023/01/01 09:51:56;;;;;;;;;12.50;11.00;;;;;12.77;81.02;100045.53;5075831;27;45428;-68
2023/01/01 09:54:28;;;;;;;;;9.75;8.75;;;;;12.87;81.36;100045.19;5074763;28;46616;-68
2023/01/01 09:56:58;;;;;;;;;8.00;7.20;;;;;12.97;80.93;100047.50;5075913;27;45373;-68
2023/01/01 09:59:24;;;;;;;;;12.75;11.25;;;;;13.05;80.84;100042.81;5075588;27;45435;-68
2023/01/01 10:02:14;;;;;;;;;12.75;11.00;;;;;13.13;81.47;100041.59;5076172;27;45385;-68
2023/01/01 10:04:58;;;;;;;;;12.00;11.75;;;;;13.19;81.13;100024.69;5074686;27;45725;-67
2023/01/01 10:07:45;;;;;;;;;17.00;12.00;;;;;13.24;80.32;100042.09;5063597;28;45303;-67
2023/01/01 10:10:20;;;;;;;;;12.50;9.00;;;;;13.26;79.17;100013.78;5075070;27;45458;-68
2023/01/01 10:13:19;;;;;;;;;12.50;9.50;;;;;13.30;79.75;100003.09;5075046;27;45483;-68
2023/01/01 10:16:00;;;;;;;;;13.75;12.50;;;;;13.40;79.14;100023.91;5073744;28;47794;-68
2023/01/01 10:18:32;;;;;;;;;11.00;10.00;;;;;13.50;79.81;100017.31;5074721;27;45525;-68
2023/01/01 10:21:29;;;;;;;;;10.50;8.50;;;;;13.61;77.91;100003.66;5074496;27;45524;-68
2023/01/01 10:24:05;;;;;;;;;13.75;9.25;;;;;13.66;78.84;100022.91;5069621;28;45530;-68
2023/01/01 10:26:33;;;;;;;;;8.00;7.25;;;;;13.70;78.12;100018.34;5067541;27;45497;-67
2023/01/01 10:29:25;;;;;;;;;9.40;7.00;;;;;13.72;77.58;100001.47;5066475;28;45416;-68
2023/01/01 10:31:53;;;;;;;;;12.00;8.75;;;;;13.77;78.04;100010.09;5073702;27;45462;-68
2023/01/01 10:34:19;;;;;;;;;7.25;6.50;;;;;13.83;77.16;99999.25;5073110;27;45622;-67
2023/01/01 10:36:45;;;;;;;;;9.75;7.50;;;;;13.90;78.20;100002.53;5073748;27;46009;-67
2023/01/01 10:39:16;;;;;;;;;8.20;8.20;;;;;13.98;77.52;100000.44;5073495;27;45380;-67
2023/01/01 10:41:42;;;;;;;;;9.50;8.00;;;;;14.07;76.94;100000.09;5073448;28;45430;-67
2023/01/01 10:44:10;;;;;;;;;6.50;6.25;;;;;14.15;73.75;99995.31;5074684;28;45504;-67
2023/01/01 10:46:41;;;;;;;;;8.60;7.60;;;;;14.26;74.81;99997.53;5074651;28;46706;-67
2023/01/01 10:49:15;;;;;;;;;8.00;7.40;;;;;14.35;75.67;99993.63;5073527;28;45607;-67
2023/01/01 10:51:46;;;;;;;;;8.00;7.00;;;;;14.45;72.89;99973.78;5074885;27;45494;-67
2023/01/01 10:54:32;;;;;;;;;9.00;6.00;;;;;14.55;72.29;99973.34;5074344;27;45360;-67
2023/01/01 10:57:11;;;;;;;;;4.40;4.40;;;;;14.65;73.21;99965.84;5071974;27;45372;-68
2023/01/01 10:59:39;;;;;;;;;7.40;6.80;;;;;14.73;74.72;99963.72;5064887;28;45519;-66
2023/01/01 11:02:15;;;;;;;;;3.80;3.80;;;;;14.82;71.11;99958.00;5074872;27;45399;-69
2023/01/01 11:04:41;;;;;;;;;13.50;9.00;;;;;14.90;71.30;99932.00;5072673;28;45497;-68
2023/01/01 11:07:06;;;;;;;;;8.50;8.50;;;;;14.98;73.00;99944.91;5074141;27;45886;-68
2023/01/01 11:09:35;;;;;;;;;4.00;4.00;;;;;15.06;70.41;99931.28;5074420;27;45302;-68
2023/01/01 11:12:04;;;;;;;;;4.20;3.60;;;;;15.15;72.31;99957.41;5074379;27;45431;-68
2023/01/01 11:14:48;;;;;;;;;7.50;4.75;;;;;15.20;69.62;99940.34;5074112;27;45525;-69
2023/01/01 11:17:21;;;;;;;;;3.60;2.40;;;;;15.27;69.98;99943.56;5063515;28;45473;-69
2023/01/01 11:19:49;;;;;;;;;6.60;5.80;;;;;15.33;67.09;99935.31;5074732;27;45434;-67
2023/01/01 11:22:33;;;;;;;;;8.40;4.80;;;;;15.40;68.36;99931.47;5074337;27;45402;-67
2023/01/01 11:25:00;;;;;;;;;10.75;7.25;;;;;15.47;70.00;99942.66;5073688;27;45414;-67
2023/01/01 11:27:26;;;;;;;;;5.20;5.20;;;;;15.52;69.00;99930.88;5074398;27;46699;-69
2023/01/01 11:30:17;;;;;;;;;7.50;6.50;;;;;15.57;66.66;99912.97;5074160;27;45367;-67
2023/01/01 11:32:42;;;;;;;;;2.20;2.20;;;;;15.66;66.16;99932.91;5074058;27;45494;-68
2023/01/01 11:35:17;;;;;;;;;4.75;4.75;;;;;15.68;66.00;99926.59;5073499;27;45304;-68